Latest Weather Observations for PORTABLE RFSNSW59

IDN60801

Issued at 6:23 pm EST Saturday 9 May 2026 (issued every 10 minutes, with the page automatically refreshed every 10 minutes)

About weather observations | Map of weather stations | Latest weather observations for NSW | Other Formats
Station Details ID: 250162 Name: PORTABLE RFSNSW59 Lat: -35.75 Lon: 148.02 Height: 669.0 m

Portable automatic weather stations (PAWS) are operated by other organisations, such as Fire and Emergency Services, and are included here by agreement. Portable stations may be deployed to a location for a short period and their location may be subject to change without notice. Wind observations from these stations are provided from heights of either three (3) or ten (10) metres above ground level (AGL).

Data from the previous 72 hours. | See also: Recent months for locations in New South Wales
Date/Time
EST
Temp
°C
App
Temp
°C
Dew
Point
°C
Rel
Hum
%
Delta-T
°C
Wind Press
QNH
hPa
Press
MSL
hPa
Rain since
9am
mm
Dir  Spd
km/h
Gust
km/h
Spd
kts
Gust
kts
09/06:10pm 7.9 6.3 6.2 89 0.8 NNE 4 4 2 2 - - 0.0
09/06:00pm 8.2 7.1 6.7 90 0.7 NNE 2 4 1 2 - - 0.0
09/05:50pm 8.5 7.4 6.9 90 0.8 NNW 2 4 1 2 - - 0.0
09/05:40pm 9.1 8.0 7.1 87 1.0 NNE 2 2 1 1 - - 0.0
09/05:30pm 9.4 8.4 7.4 87 1.0 NE 2 2 1 1 - - 0.0
09/05:20pm 10.1 8.7 7.2 82 1.4 W 4 6 2 3 - - 0.0
09/05:10pm 10.6 9.2 7.4 80 1.6 W 4 4 2 2 - - 0.0
09/05:00pm 11.0 10.0 7.4 78 1.8 WSW 2 4 1 2 - - 0.0
09/04:50pm 12.0 11.0 7.4 73 2.3 W 2 4 1 2 - - 0.0
09/04:40pm 12.8 11.3 6.9 67 2.9 W 4 4 2 2 - - 0.0
09/04:30pm 14.0 12.4 6.5 60 3.7 W 4 6 2 3 - - 0.0
09/04:20pm 14.6 12.7 6.7 59 4.0 WSW 6 6 3 3 - - 0.0
09/04:10pm 14.7 12.8 6.6 58 4.1 WSW 6 6 3 3 - - 0.0
09/04:00pm 15.0 13.1 6.6 57 4.2 SW 6 7 3 4 - - 0.0
09/03:50pm 15.0 13.1 6.9 58 4.1 SW 6 6 3 3 - - 0.0
09/03:40pm 14.7 12.8 6.9 59 3.9 SW 6 7 3 4 - - 0.0
09/03:30pm 14.8 12.8 6.9 59 4.0 SW 7 9 4 5 - - 0.0
09/03:20pm 15.1 13.5 8.0 62 3.7 SW 6 6 3 3 - - 0.0
09/03:10pm 15.1 14.0 8.4 64 3.5 SSW 4 6 2 3 - - 0.0
09/03:00pm 14.9 13.2 7.6 61 3.8 SW 6 7 3 4 - - 0.0
09/02:50pm 15.1 13.4 7.7 61 3.8 SW 6 7 3 4 - - 0.0
09/02:40pm 15.6 14.3 7.8 59 4.0 SW 4 7 2 4 - - 0.0
09/02:30pm 15.2 13.7 6.7 57 4.3 SW 4 7 2 4 - - 0.0
09/02:20pm 15.2 13.4 7.0 58 4.2 SW 6 7 3 4 - - 0.0
09/02:10pm 15.2 13.2 6.2 55 4.5 WSW 6 7 3 4 - - 0.0
09/02:00pm 14.8 12.8 7.2 60 3.9 SW 7 7 4 4 - - 0.0
09/01:50pm 14.9 13.0 6.8 58 4.1 W 6 7 3 4 - - 0.0
09/01:40pm 14.7 12.8 6.9 59 3.9 WSW 6 9 3 5 - - 0.0
09/01:30pm 14.5 12.4 6.5 58 4.0 WSW 7 9 4 5 - - 0.0
09/01:20pm 14.2 12.2 7.0 62 3.6 SSW 7 11 4 6 - - 0.0
09/01:10pm 14.3 12.2 6.5 59 3.9 SW 7 9 4 5 - - 0.0
09/01:00pm 14.3 12.1 6.2 58 4.0 SW 7 9 4 5 - - 0.0
09/12:50pm 14.1 12.4 7.7 65 3.3 SSW 6 7 3 4 - - 0.0
09/12:40pm 13.9 12.0 7.6 66 3.2 SSW 7 9 4 5 - - 0.0
09/12:30pm 13.7 12.0 8.2 69 2.8 SSW 7 11 4 6 - - 0.0
09/12:20pm 13.6 11.7 7.6 67 3.1 SSW 7 11 4 6 - - 0.0
09/12:10pm 13.2 10.7 6.4 63 3.4 S 9 11 5 6 - - 0.0
09/12:00pm 13.1 10.6 6.5 64 3.3 SSW 9 13 5 7 - - 0.0
09/11:50am 12.9 10.1 6.8 66 3.0 SSW 11 13 6 7 - - 0.0
09/11:40am 12.8 10.1 5.7 62 3.5 SSW 9 11 5 6 - - 0.0
09/11:30am 12.6 10.2 7.0 68 2.8 S 9 13 5 7 - - 0.0
09/11:20am 12.2 9.3 6.7 69 2.7 SSW 11 15 6 8 - - 0.0
09/11:10am 12.1 9.3 6.8 70 2.6 SSW 11 13 6 7 - - 0.0
09/11:00am 12.0 9.0 6.0 66 2.9 SSW 11 13 6 7 - - 0.0
09/10:50am 11.9 9.6 7.6 75 2.2 SSW 9 11 5 6 - - 0.0
09/10:40am 11.6 8.9 7.3 75 2.1 SSW 11 13 6 7 - - 0.0
09/10:30am 11.2 9.5 8.4 83 1.4 SW 7 11 4 6 - - 0.0
09/10:20am 10.6 8.9 8.4 86 1.1 SSW 7 9 4 5 - - 0.0
09/10:10am 10.0 8.5 9.0 93 0.5 S 7 11 4 6 - - 0.0
09/10:00am 9.5 8.1 8.9 96 0.3 S 6 9 3 5 - - 0.0
09/09:50am 9.3 8.7 8.8 97 0.3 S 2 4 1 2 - - 0.0
09/09:40am 8.8 8.1 8.5 98 0.2 NNE 2 2 1 1 - - 0.0
09/09:30am 7.5 6.4 7.1 97 0.2 NNE 2 2 1 1 - - 0.0
09/09:20am 6.3 4.6 6.0 98 0.1 SSE 4 4 2 2 - - 0.0
09/09:10am 5.9 4.5 5.6 98 0.1 SSE 2 4 1 2 - - 0.0
09/09:00am 5.5 4.4 5.2 98 0.1 CALM 0 2 0 1 - - 0.8
09/08:50am 5.0 3.4 4.7 98 0.1 ESE 2 2 1 1 - - 0.8
09/08:40am 4.7 3.1 4.4 98 0.1 SE 2 4 1 2 - - 0.8
09/08:30am 4.3 2.6 4.0 98 0.1 S 2 4 1 2 - - 0.8
09/08:20am 3.9 2.1 3.6 98 0.1 N 2 4 1 2 - - 0.8
09/08:10am 3.4 1.5 3.1 98 0.1 NNE 2 4 1 2 - - 0.8
09/08:00am 2.6 0.2 2.2 97 0.2 NNE 4 4 2 2 - - 0.8
09/07:50am 2.2 -0.3 1.8 97 0.2 NNE 4 6 2 3 - - 0.8
09/07:40am 2.5 0.5 2.1 97 0.2 NW 2 4 1 2 - - 0.8
09/07:30am 2.1 0.0 1.7 97 0.2 N 2 4 1 2 - - 0.8
09/07:20am 2.2 0.1 1.8 97 0.2 N 2 4 1 2 - - 0.8
09/07:10am 1.6 -0.6 1.2 97 0.2 N 2 2 1 1 - - 0.8
09/07:00am 1.5 -0.7 1.1 97 0.2 NNE 2 4 1 2 - - 0.6
09/06:50am 1.6 -0.6 1.2 97 0.2 NNE 2 2 1 1 - - 0.6
09/06:40am 1.9 -0.2 1.5 97 0.2 NNW 2 2 1 1 - - 0.6
09/06:30am 2.0 -0.1 1.6 97 0.2 N 2 4 1 2 - - 0.6
09/06:20am 2.1 0.0 1.7 97 0.2 NNW 2 2 1 1 - - 0.6
09/06:10am 2.0 -0.1 1.6 97 0.2 N 2 2 1 1 - - 0.6
09/06:00am 2.1 0.0 1.7 97 0.2 N 2 2 1 1 - - 0.6
09/05:50am 2.3 0.2 1.9 97 0.2 NNW 2 4 1 2 - - 0.6
09/05:40am 2.4 0.3 2.0 97 0.2 NNW 2 4 1 2 - - 0.6
09/05:30am 2.7 0.7 2.3 97 0.2 NE 2 2 1 1 - - 0.6
09/05:20am 2.8 0.8 2.4 97 0.2 N 2 4 1 2 - - 0.6
09/05:10am 2.9 0.6 2.5 97 0.2 NNE 4 4 2 2 - - 0.6
09/05:00am 2.9 0.6 2.5 97 0.2 N 4 4 2 2 - - 0.6
09/04:50am 3.1 0.8 2.7 97 0.2 N 4 4 2 2 - - 0.6
09/04:40am 3.7 1.9 3.3 97 0.2 NNE 2 4 1 2 - - 0.6
09/04:30am 4.2 2.1 3.8 97 0.2 NNW 4 6 2 3 - - 0.6
09/04:20am 4.7 2.7 4.3 97 0.2 N 4 6 2 3 - - 0.6
09/04:10am 4.8 2.8 4.5 98 0.1 N 4 4 2 2 - - 0.6
09/04:00am 4.9 2.9 4.6 98 0.1 N 4 4 2 2 - - 0.6
09/03:50am 5.0 2.7 4.6 97 0.2 NNE 6 6 3 3 - - 0.6
09/03:40am 5.1 3.2 4.8 98 0.1 N 4 6 2 3 - - 0.6
09/03:30am 5.1 3.2 4.7 97 0.2 N 4 6 2 3 - - 0.6
09/03:20am 5.1 2.8 4.7 97 0.2 N 6 6 3 3 - - 0.6
09/03:10am 5.1 2.8 4.7 97 0.2 N 6 6 3 3 - - 0.6
09/03:00am 5.2 3.3 4.8 97 0.2 N 4 6 2 3 - - 0.6
09/02:50am 5.2 2.9 4.8 97 0.2 N 6 7 3 4 - - 0.6
09/02:40am 5.3 3.0 4.9 97 0.2 N 6 6 3 3 - - 0.6
09/02:30am 5.5 3.6 5.1 97 0.2 N 4 6 2 3 - - 0.6
09/02:20am 5.8 4.0 5.5 98 0.1 N 4 6 2 3 - - 0.6
09/02:10am 5.7 3.9 5.4 98 0.1 N 4 4 2 2 - - 0.6
09/02:00am 5.6 4.1 5.2 97 0.2 N 2 4 1 2 - - 0.6
09/01:50am 5.3 3.4 4.9 97 0.2 N 4 4 2 2 - - 0.6
09/01:40am 5.4 3.5 5.0 97 0.2 NNE 4 6 2 3 - - 0.6
09/01:30am 5.7 4.3 5.3 97 0.2 W 2 6 1 3 - - 0.6
09/01:20am 5.6 4.1 5.2 97 0.2 W 2 4 1 2 - - 0.6
09/01:10am 5.9 4.5 5.5 97 0.2 W 2 4 1 2 - - 0.6
09/01:00am 5.8 4.4 5.4 97 0.2 N 2 4 1 2 - - 0.6
09/12:50am 5.4 3.9 4.9 97 0.2 WSW 2 4 1 2 - - 0.6
09/12:40am 5.0 3.0 4.4 96 0.3 S 4 4 2 2 - - 0.6
09/12:30am 5.4 3.9 4.9 97 0.2 WNW 2 4 1 2 - - 0.6
09/12:20am 5.4 3.9 4.8 96 0.3 WNW 2 2 1 1 - - 0.6
09/12:10am 5.6 4.5 4.9 95 0.3 CALM 0 2 0 1 - - 0.6
09/12:00am 6.0 4.5 5.2 95 0.4 SSW 2 6 1 3 - - 0.6
 
Date/Time
EST
Temp
°C
App
Temp
°C
Dew
Point
°C
Rel
Hum
%
Delta-T
°C
Wind Press
QNH
hPa
Press
MSL
hPa
Rain since
9am
mm
Dir  Spd
km/h
Gust
km/h
Spd
kts
Gust
kts
08/11:50pm 6.6 4.9 5.9 95 0.3 NW 4 4 2 2 - - 0.6
08/11:40pm 6.7 5.0 6.1 96 0.3 N 4 6 2 3 - - 0.6
08/11:30pm 6.7 5.4 6.1 96 0.3 WNW 2 2 1 1 - - 0.6
08/11:20pm 6.8 5.5 6.0 95 0.4 NNE 2 4 1 2 - - 0.6
08/11:10pm 7.2 5.6 6.5 95 0.3 NW 4 4 2 2 - - 0.6
08/11:00pm 7.2 5.6 6.4 95 0.4 NNW 4 6 2 3 - - 0.6
08/10:50pm 7.2 5.6 6.5 95 0.3 N 4 6 2 3 - - 0.6
08/10:40pm 7.4 5.9 6.6 95 0.4 NNE 4 6 2 3 - - 0.6
08/10:30pm 7.5 6.3 6.4 93 0.5 WNW 2 2 1 1 - - 0.6
08/10:20pm 7.9 6.8 6.9 93 0.5 N 2 4 1 2 - - 0.6
08/10:10pm 8.0 6.5 7.0 93 0.5 N 4 4 2 2 - - 0.6
08/10:00pm 8.3 6.9 7.3 93 0.5 N 4 4 2 2 - - 0.6
08/09:50pm 8.4 7.1 7.5 94 0.4 N 4 6 2 3 - - 0.6
08/09:40pm 8.5 7.2 7.5 93 0.5 N 4 6 2 3 - - 0.6
08/09:30pm 9.0 7.7 7.7 91 0.6 N 4 6 2 3 - - 0.6
08/09:20pm 9.2 7.9 7.8 91 0.7 N 4 4 2 2 - - 0.6
08/09:10pm 9.2 7.9 7.8 91 0.7 N 4 6 2 3 - - 0.6
08/09:00pm 9.2 7.9 7.8 91 0.7 NNW 4 6 2 3 - - 0.6
08/08:50pm 9.2 8.0 8.0 92 0.6 N 4 4 2 2 - - 0.6
08/08:40pm 9.3 8.1 7.9 91 0.7 N 4 4 2 2 - - 0.6
08/08:30pm 9.3 8.1 8.0 92 0.6 N 4 4 2 2 - - 0.6
08/08:20pm 9.3 8.1 8.0 92 0.6 N 4 6 2 3 - - 0.6
08/08:10pm 9.2 8.0 8.0 92 0.6 NNW 4 4 2 2 - - 0.6
08/08:00pm 9.3 8.1 8.0 92 0.6 N 4 4 2 2 - - 0.6
08/07:50pm 9.3 8.1 7.9 91 0.7 N 4 4 2 2 - - 0.6
08/07:40pm 9.2 8.0 7.9 92 0.6 N 4 4 2 2 - - 0.6
08/07:30pm 9.2 8.0 7.9 92 0.6 N 4 6 2 3 - - 0.6
08/07:20pm 9.2 7.9 7.8 91 0.7 NNE 4 6 2 3 - - 0.6
08/07:10pm 9.2 7.9 7.8 91 0.7 N 4 4 2 2 - - 0.6
08/07:00pm 9.1 7.8 7.8 92 0.6 NNE 4 4 2 2 - - 0.6
08/06:50pm 9.1 8.2 7.8 92 0.6 N 2 4 1 2 - - 0.6
08/06:40pm 9.2 7.9 7.7 90 0.7 N 4 4 2 2 - - 0.6
08/06:30pm 9.1 7.8 7.6 90 0.7 NNE 4 6 2 3 - - 0.6
08/06:20pm 9.1 7.8 7.6 90 0.7 N 4 4 2 2 - - 0.6
08/06:10pm 9.1 7.4 7.6 90 0.7 N 6 7 3 4 - - 0.6
08/06:00pm 9.1 7.8 7.7 91 0.7 N 4 4 2 2 - - 0.6
08/05:50pm 9.1 7.8 7.6 90 0.7 NNE 4 6 2 3 - - 0.6
08/05:40pm 9.2 7.9 7.5 89 0.8 N 4 4 2 2 - - 0.6
08/05:30pm 9.3 8.0 7.7 90 0.8 NNW 4 4 2 2 - - 0.6
08/05:20pm 9.4 8.1 7.7 89 0.8 NNW 4 4 2 2 - - 0.6
08/05:10pm 9.5 8.6 7.6 88 0.9 N 2 2 1 1 - - 0.6
08/05:00pm 9.6 8.6 7.3 85 1.1 NNE 2 4 1 2 - - 0.6
08/04:50pm 9.7 8.7 7.3 85 1.2 NNE 2 4 1 2 - - 0.6
08/04:40pm 9.7 8.7 7.5 86 1.1 ENE 2 2 1 1 - - 0.6
08/04:30pm 9.7 8.3 7.2 84 1.2 SSE 4 4 2 2 - - 0.6
08/04:20pm 9.7 8.3 7.3 85 1.2 S 4 4 2 2 - - 0.6
08/04:10pm 9.7 8.3 7.3 85 1.2 S 4 4 2 2 - - 0.6
08/04:00pm 9.6 8.2 7.1 84 1.2 S 4 4 2 2 - - 0.6
08/03:50pm 9.6 8.2 7.2 85 1.2 S 4 6 2 3 - - 0.6
08/03:40pm 9.6 8.2 7.1 84 1.2 S 4 6 2 3 - - 0.6
08/03:30pm 9.5 8.1 7.1 85 1.2 S 4 6 2 3 - - 0.6
08/03:20pm 9.5 8.0 7.0 84 1.2 S 4 7 2 4 - - 0.6
08/03:10pm 9.4 7.6 7.3 87 1.0 SSW 6 6 3 3 - - 0.6
08/03:00pm 9.3 7.5 7.2 87 1.0 SSW 6 9 3 5 - - 0.6
08/02:50pm 9.3 7.6 7.4 88 0.9 SSW 6 9 3 5 - - 0.6
08/02:40pm 9.3 6.9 7.2 87 1.0 SSW 9 13 5 7 - - 0.6
08/02:30pm 9.4 6.6 7.1 85 1.1 SSW 11 13 6 7 - - 0.6
08/02:20pm 9.5 6.7 7.0 84 1.2 SSW 11 13 6 7 - - 0.6
08/02:10pm 9.5 6.4 7.2 85 1.1 SSW 13 17 7 9 - - 0.6
08/02:00pm 9.5 6.8 7.2 85 1.1 SSW 11 15 6 8 - - 0.6
08/01:50pm 9.3 6.6 7.4 88 0.9 SSW 11 15 6 8 - - 0.6
08/01:40pm 9.3 7.0 7.3 87 1.0 SSW 9 11 5 6 - - 0.6
08/01:30pm 9.2 6.9 7.4 88 0.9 SW 9 9 5 5 - - 0.6
08/01:20pm 9.1 7.2 7.7 91 0.7 SW 7 9 4 5 - - 0.6
08/01:10pm 9.0 6.7 7.3 89 0.8 SW 9 11 5 6 - - 0.6
08/01:00pm 8.9 7.0 7.7 92 0.6 WSW 7 11 4 6 - - 0.6
08/12:50pm 8.9 6.5 7.2 89 0.8 WSW 9 11 5 6 - - 0.6
08/12:40pm 8.9 6.6 7.4 90 0.7 SW 9 11 5 6 - - 0.6
08/12:30pm 9.1 7.1 7.3 88 0.9 SW 7 11 4 6 - - 0.6
08/12:20pm 8.9 6.9 7.2 89 0.8 SW 7 9 4 5 - - 0.6
08/12:10pm 9.0 7.0 7.2 88 0.9 W 7 9 4 5 - - 0.6
08/12:00pm 8.8 6.9 7.4 91 0.7 WSW 7 11 4 6 - - 0.6
08/11:50am 9.0 7.2 7.1 88 0.9 WNW 6 9 3 5 - - 0.6
08/11:40am 9.0 7.3 7.5 90 0.7 W 6 9 3 5 - - 0.6
08/11:30am 9.1 7.3 7.2 88 0.9 WNW 6 9 3 5 - - 0.6
08/11:20am 8.9 7.0 7.4 90 0.7 WNW 7 9 4 5 - - 0.6
08/11:10am 8.9 7.1 7.1 88 0.9 WNW 6 9 3 5 - - 0.6
08/11:00am 8.6 6.6 7.3 91 0.6 W 7 9 4 5 - - 0.6
08/10:50am 8.3 6.4 6.7 90 0.8 W 6 9 3 5 - - 0.6
08/10:40am 7.8 5.6 6.4 91 0.7 WNW 7 9 4 5 - - 0.6
08/10:30am 7.8 5.8 6.3 90 0.7 NW 6 7 3 4 - - 0.6
08/10:20am 7.7 6.1 6.4 91 0.6 NW 4 4 2 2 - - 0.2
08/10:10am 7.5 5.9 6.4 93 0.5 NW 4 6 2 3 - - 0.2
08/10:00am 7.3 5.7 6.3 93 0.5 WNW 4 4 2 2 - - 0.2
08/09:50am 7.1 5.8 6.2 94 0.4 W 2 4 1 2 - - 0.2
08/09:40am 6.8 5.1 6.1 95 0.3 NW 4 4 2 2 - - 0.2
08/09:30am 6.5 4.8 5.8 95 0.3 NW 4 6 2 3 - - 0.2
08/09:20am 6.3 4.5 5.6 95 0.3 NNW 4 6 2 3 - - 0.0
08/09:10am 6.3 4.5 5.6 95 0.3 NW 4 7 2 4 - - 0.0
08/09:00am 6.2 4.4 5.5 95 0.3 NW 4 6 2 3 - - 0.0
08/08:50am 6.2 4.4 5.4 95 0.4 NW 4 7 2 4 - - 0.0
08/08:40am 6.1 3.9 5.4 95 0.3 WNW 6 9 3 5 - - 0.0
08/08:30am 6.1 3.9 5.4 95 0.3 WNW 6 7 3 4 - - 0.0
08/08:20am 6.1 4.3 5.4 95 0.3 WNW 4 6 2 3 - - 0.0
08/08:10am 6.0 4.2 5.3 95 0.3 WNW 4 7 2 4 - - 0.0
08/08:00am 5.9 3.7 5.2 95 0.3 W 6 7 3 4 - - 0.0
08/07:50am 5.9 4.1 5.2 95 0.3 W 4 7 2 4 - - 0.0
08/07:40am 5.8 4.3 5.2 96 0.3 W 2 4 1 2 - - 0.0
08/07:30am 5.7 3.8 5.1 96 0.3 N 4 4 2 2 - - 0.0
08/07:20am 5.7 4.2 5.0 95 0.3 N 2 4 1 2 - - 0.0
08/07:10am 5.7 3.8 5.0 95 0.3 NNW 4 6 2 3 - - 0.0
08/07:00am 5.6 4.1 4.8 95 0.4 NW 2 4 1 2 - - 0.0
08/06:50am 5.6 4.1 4.8 95 0.4 W 2 4 1 2 - - 0.0
08/06:40am 5.5 3.9 4.7 95 0.4 WNW 2 4 1 2 - - 0.0
08/06:30am 5.5 3.9 4.7 95 0.4 W 2 4 1 2 - - 0.0
08/06:20am 5.5 3.9 4.7 95 0.4 W 2 4 1 2 - - 0.0
08/06:10am 5.5 3.5 4.6 94 0.4 NNW 4 6 2 3 - - 0.0
08/06:00am 5.4 3.4 4.6 95 0.4 N 4 4 2 2 - - 0.0
08/05:50am 5.4 3.8 4.5 94 0.4 NNW 2 4 1 2 - - 0.0
08/05:40am 5.3 3.7 4.5 95 0.4 NNW 2 2 1 1 - - 0.0
08/05:30am 5.3 3.7 4.4 94 0.4 N 2 4 1 2 - - 0.0
08/05:20am 5.3 3.3 4.4 94 0.4 NNW 4 6 2 3 - - 0.0
08/05:10am 5.3 3.3 4.3 93 0.4 NNW 4 4 2 2 - - 0.0
08/05:00am 5.2 3.2 4.2 93 0.4 NNW 4 6 2 3 - - 0.0
08/04:50am 5.2 3.5 4.2 93 0.4 N 2 4 1 2 - - 0.0
08/04:40am 5.2 3.1 4.1 93 0.5 WNW 4 6 2 3 - - 0.0
08/04:30am 5.2 3.1 4.1 93 0.5 N 4 6 2 3 - - 0.0
08/04:20am 5.1 3.0 4.1 93 0.4 NW 4 4 2 2 - - 0.0
08/04:10am 5.1 3.0 4.0 93 0.5 NW 4 4 2 2 - - 0.0
08/04:00am 5.1 3.4 4.0 93 0.5 NW 2 4 1 2 - - 0.0
08/03:50am 5.1 3.4 3.9 92 0.5 NW 2 4 1 2 - - 0.0
08/03:40am 5.1 3.0 3.9 92 0.5 W 4 4 2 2 - - 0.0
08/03:30am 5.1 3.0 3.9 92 0.5 W 4 7 2 4 - - 0.0
08/03:20am 5.1 2.6 3.8 91 0.6 W 6 7 3 4 - - 0.0
08/03:10am 5.1 3.0 3.8 91 0.6 W 4 6 2 3 - - 0.0
08/03:00am 5.1 2.9 3.6 90 0.7 WNW 4 6 2 3 - - 0.0
08/02:50am 5.1 2.9 3.6 90 0.7 NW 4 6 2 3 - - 0.0
08/02:40am 5.1 2.9 3.5 89 0.7 WNW 4 7 2 4 - - 0.0
08/02:30am 5.1 2.9 3.5 89 0.7 NW 4 6 2 3 - - 0.0
08/02:20am 5.1 2.9 3.4 89 0.7 WNW 4 7 2 4 - - 0.0
08/02:10am 5.1 2.5 3.3 88 0.8 W 6 7 3 4 - - 0.0
08/02:00am 5.1 2.5 3.3 88 0.8 W 6 7 3 4 - - 0.0
08/01:50am 5.1 2.5 3.2 87 0.8 W 6 9 3 5 - - 0.0
08/01:40am 5.0 2.4 3.2 88 0.8 WNW 6 6 3 3 - - 0.0
08/01:30am 4.9 2.7 3.2 89 0.7 WNW 4 6 2 3 - - 0.0
08/01:20am 4.9 2.3 3.2 89 0.7 NW 6 7 3 4 - - 0.0
08/01:10am 4.9 2.7 3.1 88 0.8 WNW 4 7 2 4 - - 0.0
08/01:00am 4.9 2.7 3.1 88 0.8 WNW 4 9 2 5 - - 0.0
08/12:50am 5.0 2.7 3.0 87 0.9 NW 4 6 2 3 - - 0.0
08/12:40am 5.0 2.7 3.0 87 0.9 NW 4 7 2 4 - - 0.0
08/12:30am 5.1 2.8 2.8 85 1.0 NW 4 6 2 3 - - 0.0
08/12:20am 5.2 2.9 2.7 84 1.1 W 4 4 2 2 - - 0.0
08/12:10am 5.2 2.9 2.5 83 1.1 W 4 6 2 3 - - 0.0
08/12:00am 5.2 2.9 2.5 83 1.1 WSW 4 4 2 2 - - 0.0
 
Date/Time
EST
Temp
°C
App
Temp
°C
Dew
Point
°C
Rel
Hum
%
Delta-T
°C
Wind Press
QNH
hPa
Press
MSL
hPa
Rain since
9am
mm
Dir  Spd
km/h
Gust
km/h
Spd
kts
Gust
kts
07/11:50pm 5.2 2.8 2.4 82 1.2 WSW 4 6 2 3 - - 0.0
07/11:40pm 5.2 2.9 2.5 83 1.1 WSW 4 4 2 2 - - 0.0
07/11:30pm 5.2 2.8 2.3 81 1.2 W 4 7 2 4 - - 0.0
07/11:20pm 5.2 2.8 2.4 82 1.2 SW 4 6 2 3 - - 0.0
07/11:10pm 5.2 2.8 2.0 80 1.3 WSW 4 6 2 3 - - 0.0
07/11:00pm 5.2 2.4 1.9 79 1.4 SW 6 7 3 4 - - 0.0
07/10:50pm 5.0 2.0 1.9 80 1.3 SW 7 9 4 5 - - 0.0
07/10:40pm 4.6 1.8 1.9 83 1.1 SW 6 6 3 3 - - 0.0
07/10:30pm 4.5 2.4 2.0 84 1.0 SSW 2 4 1 2 - - 0.0
07/10:20pm 4.8 2.3 1.8 81 1.2 SSW 4 6 2 3 - - 0.0
07/10:10pm 5.0 2.5 1.8 80 1.3 S 4 6 2 3 - - 0.0
07/10:00pm 5.0 2.5 1.7 79 1.4 SW 4 6 2 3 - - 0.0
07/09:50pm 5.0 2.5 1.8 80 1.3 SSW 4 6 2 3 - - 0.0
07/09:40pm 5.0 2.1 1.6 79 1.4 SSW 6 6 3 3 - - 0.0
07/09:30pm 5.0 2.1 1.5 78 1.4 SW 6 9 3 5 - - 0.0
07/09:20pm 4.9 1.8 1.4 78 1.4 SW 7 9 4 5 - - 0.0
07/09:10pm 4.8 1.7 1.5 79 1.4 WSW 7 9 4 5 - - 0.0
07/09:00pm 4.6 2.0 1.1 78 1.4 SW 4 7 2 4 - - 0.0
07/08:50pm 4.5 1.9 1.1 78 1.4 SW 4 6 2 3 - - 0.0
07/08:40pm 4.5 1.5 1.1 78 1.4 SW 6 9 3 5 - - 0.0
07/08:30pm 4.5 1.5 1.0 78 1.4 SSW 6 7 3 4 - - 0.0
07/08:20pm 4.4 1.2 0.8 77 1.5 SW 7 9 4 5 - - 0.0
07/08:10pm 4.1 0.9 0.9 80 1.3 SW 7 11 4 6 - - 0.0
07/08:00pm 3.7 1.0 0.6 80 1.2 WSW 4 4 2 2 - - 0.0
07/07:50pm 3.6 0.9 0.3 79 1.3 WNW 4 4 2 2 - - 0.0
07/07:40pm 3.4 1.1 0.4 81 1.2 W 2 4 1 2 - - 0.0
07/07:30pm 3.5 1.2 0.3 79 1.3 E 2 2 1 1 - - 0.0
07/07:20pm 3.6 1.3 0.2 78 1.3 NW 2 4 1 2 - - 0.0
07/07:10pm 3.8 1.1 0.0 76 1.5 NW 4 4 2 2 - - 0.0
07/07:00pm 4.2 1.1 -0.1 73 1.7 WSW 6 9 3 5 - - 0.0
07/06:50pm 4.4 1.1 -0.2 72 1.8 WSW 7 11 4 6 - - 0.0
07/06:40pm 4.6 0.5 -0.2 71 1.9 WSW 11 17 6 9 - - 0.0
07/06:30pm 4.7 0.6 -0.2 70 1.9 SW 11 13 6 7 - - 0.0
07/06:20pm 4.8 0.7 -0.1 70 1.9 SW 11 15 6 8 - - 0.0
07/06:10pm 4.9 1.2 -0.1 70 2.0 SW 9 11 5 6 - - 0.0
07/06:00pm 5.2 1.1 0.0 69 2.1 SW 11 17 6 9 - - 0.0
07/05:50pm 5.3 0.4 -0.2 67 2.2 SW 15 20 8 11 - - 0.0
07/05:40pm 5.1 0.6 0.0 69 2.0 SW 13 17 7 9 - - 0.0
07/05:30pm 5.2 1.2 0.2 70 2.0 SW 11 13 6 7 - - 0.0
07/05:20pm 5.5 1.1 0.4 70 2.1 SW 13 15 7 8 - - 0.0
07/05:10pm 5.7 0.9 0.2 68 2.2 SW 15 19 8 10 - - 0.0
07/05:00pm 6.0 1.6 0.5 68 2.2 SW 13 20 7 11 - - 0.0
07/04:50pm 6.3 1.1 0.2 65 2.5 SW 17 19 9 10 - - 0.0
07/04:40pm 6.6 0.8 0.2 63 2.6 SW 20 24 11 13 - - 0.0
07/04:30pm 7.3 2.6 0.6 62 2.8 SW 15 19 8 10 - - 0.0
07/04:20pm 7.2 2.4 0.4 62 2.8 WSW 15 19 8 10 - - 0.0
07/04:10pm 7.0 2.7 0.7 64 2.6 WSW 13 19 7 10 - - 0.0
07/04:00pm 7.5 3.3 1.4 65 2.6 WSW 13 17 7 9 - - 0.0
07/03:50pm 7.7 3.4 0.8 61 2.9 WSW 13 15 7 8 - - 0.0
07/03:40pm 7.7 2.9 0.0 58 3.2 WSW 15 17 8 9 - - 0.0
07/03:30pm 8.2 3.4 0.2 57 3.3 WSW 15 20 8 11 - - 0.0
07/03:20pm 8.4 4.0 0.6 58 3.3 WSW 13 17 7 9 - - 0.0
07/03:10pm 7.5 3.2 0.8 62 2.8 WSW 13 15 7 8 - - 0.0
07/03:00pm 6.8 1.6 0.1 62 2.7 WSW 17 19 9 10 - - 0.0
07/02:50pm 7.2 2.0 0.2 61 2.9 WSW 17 20 9 11 - - 0.0
07/02:40pm 8.0 3.3 0.9 61 3.0 WSW 15 20 8 11 - - 0.0
07/02:30pm 7.9 2.9 1.3 63 2.8 WSW 17 20 9 11 - - 0.0
07/02:20pm 7.5 3.1 0.3 60 3.0 WSW 13 19 7 10 - - 0.0
07/02:10pm 7.4 2.3 1.0 64 2.7 SW 17 22 9 12 - - 0.0
07/02:00pm 7.8 3.1 1.1 62 2.8 SW 15 19 8 10 - - 0.0
07/01:50pm 7.7 2.2 0.6 61 2.9 SW 19 20 10 11 - - 0.0
07/01:40pm 7.6 2.4 0.0 58 3.1 SW 17 22 9 12 - - 0.0
07/01:30pm 6.9 1.2 -0.5 59 3.0 SW 19 22 10 12 - - 0.0
07/01:20pm 7.3 2.4 -0.3 58 3.1 WSW 15 19 8 10 - - 0.0
07/01:10pm 7.2 2.2 1.2 65 2.5 SW 17 20 9 11 - - 0.0
07/01:00pm 7.1 2.6 -0.2 60 3.0 SW 13 17 7 9 - - 0.0
07/12:50pm 6.7 1.9 0.4 64 2.6 SW 15 19 8 10 - - 0.0
07/12:40pm 6.9 2.0 -0.3 60 2.9 SW 15 20 8 11 - - 0.0
07/12:30pm 7.2 2.4 0.1 60 2.9 SW 15 19 8 10 - - 0.0
07/12:20pm 6.9 2.1 -0.1 61 2.8 SW 15 19 8 10 - - 0.0
07/12:10pm 7.1 2.3 0.2 61 2.8 SW 15 17 8 9 - - 0.0
07/12:00pm 7.3 2.9 0.6 62 2.8 SW 13 19 7 10 - - 0.0
07/11:50am 6.8 2.0 0.0 62 2.8 SW 15 19 8 10 - - 0.0
07/11:40am 7.0 2.6 0.1 61 2.8 SW 13 15 7 8 - - 0.0
07/11:30am 7.4 3.2 1.4 66 2.5 WSW 13 15 7 8 - - 0.0
07/11:20am 6.8 2.4 0.4 63 2.6 SW 13 19 7 10 - - 0.0
07/11:10am 5.9 2.0 0.9 70 2.1 SW 11 15 6 8 - - 0.0
07/11:00am 6.1 0.6 0.4 67 2.3 SSW 19 19 10 10 - - 0.0
07/10:50am 5.9 1.2 1.1 71 2.0 SW 15 20 8 11 - - 0.0
07/10:40am 5.5 1.1 0.3 69 2.1 SW 13 20 7 11 - - 0.0
07/10:30am 5.0 0.5 -0.1 69 2.0 WSW 13 17 7 9 - - 0.0
07/10:20am 4.8 1.1 0.0 71 1.9 SW 9 11 5 6 - - 0.0
07/10:10am 4.6 0.9 0.1 72 1.8 WSW 9 11 5 6 - - 0.0
07/10:00am 4.4 1.2 -0.2 72 1.8 SSW 6 11 3 6 - - 0.0
07/09:50am 4.2 1.1 0.2 75 1.6 SW 6 11 3 6 - - 0.0
07/09:40am 4.2 0.5 0.0 74 1.7 SW 9 13 5 7 - - 0.0
07/09:30am 4.2 0.9 0.2 75 1.6 WSW 7 13 4 7 - - 0.0
07/09:20am 4.1 0.8 0.4 77 1.5 SSW 7 11 4 6 - - 0.0
07/09:10am 4.0 0.7 0.0 75 1.6 SW 7 9 4 5 - - 0.0
07/09:00am 4.2 0.5 0.2 75 1.6 WSW 9 11 5 6 - - 2.6
07/08:50am 3.8 0.7 0.1 77 1.5 S 6 7 3 4 - - 2.6
07/08:40am 3.6 0.5 0.3 79 1.3 WSW 6 7 3 4 - - 2.6
07/08:30am 3.5 0.8 0.5 81 1.2 W 4 6 2 3 - - 2.6
07/08:20am 3.4 1.1 0.3 80 1.2 ESE 2 4 1 2 - - 2.6
07/08:10am 3.4 0.4 0.5 81 1.1 WSW 6 7 3 4 - - 2.6
07/08:00am 3.3 0.2 0.4 81 1.1 W 6 7 3 4 - - 2.6
07/07:50am 3.1 0.0 0.2 81 1.1 WSW 6 7 3 4 - - 2.6
07/07:40am 2.9 0.2 0.3 83 1.0 WSW 4 6 2 3 - - 2.6
07/07:30am 2.9 0.2 0.1 82 1.1 WNW 4 7 2 4 - - 2.6
07/07:20am 3.1 -0.2 0.1 81 1.2 WNW 7 9 4 5 - - 2.6
07/07:10am 3.1 0.0 0.3 82 1.1 W 6 9 3 5 - - 2.6
07/07:00am 3.2 -0.1 0.2 81 1.2 WSW 7 11 4 6 - - 2.6
07/06:50am 3.3 -0.3 0.7 83 1.0 WSW 9 13 5 7 - - 2.6
07/06:40am 3.4 -0.1 1.1 85 0.9 W 9 13 5 7 - - 2.6
07/06:30am 3.6 0.1 1.3 85 0.9 WSW 9 13 5 7 - - 2.6
07/06:20am 3.7 0.2 1.2 84 1.0 W 9 13 5 7 - - 2.6
07/06:10am 3.8 -0.9 0.9 81 1.2 W 15 19 8 10 - - 2.6
07/06:00am 3.8 -0.5 1.0 82 1.1 W 13 17 7 9 - - 2.6
07/05:50am 3.9 0.9 1.9 87 0.8 W 7 9 4 5 - - 2.6
07/05:40am 4.2 0.8 2.1 86 0.9 W 9 11 5 6 - - 2.6
07/05:30am 4.6 1.3 2.4 86 0.9 W 9 13 5 7 - - 2.6
07/05:20am 4.9 2.0 2.8 86 0.9 WNW 7 9 4 5 - - 2.6
07/05:10am 5.3 2.1 3.0 85 1.0 W 9 13 5 7 - - 2.6
07/05:00am 5.5 1.8 2.4 80 1.3 WSW 11 13 6 7 - - 2.6
07/04:50am 5.7 1.9 2.0 77 1.6 W 11 17 6 9 - - 2.6
07/04:40am 6.0 1.6 2.6 79 1.5 WSW 15 20 8 11 - - 2.6
07/04:30am 6.2 1.9 3.2 81 1.3 W 15 20 8 11 - - 2.6
07/04:20am 6.5 2.8 4.4 86 0.9 W 13 17 7 9 - - 2.6
07/04:10am 7.0 2.7 5.2 88 0.8 W 17 19 9 10 - - 2.6
07/04:00am 7.7 3.6 6.0 89 0.8 W 17 26 9 14 - - 2.6
07/03:50am 8.0 5.6 6.9 93 0.5 NW 9 19 5 10 - - 2.6
07/03:40am 7.9 5.5 7.0 94 0.4 NNW 9 15 5 8 - - 2.4
07/03:30am 7.9 5.9 6.9 93 0.5 NNW 7 11 4 6 - - 2.2
07/03:20am 7.8 5.8 6.9 94 0.4 NNW 7 11 4 6 - - 2.2
07/03:10am 7.7 5.8 6.8 94 0.4 NW 6 7 3 4 - - 2.0
07/03:00am 7.7 5.8 6.8 94 0.4 N 6 9 3 5 - - 2.0
07/02:50am 7.6 5.7 6.8 95 0.4 N 6 9 3 5 - - 1.8
07/02:40am 7.5 5.4 6.7 95 0.4 N 7 11 4 6 - - 1.6
07/02:30am 7.5 5.6 6.6 94 0.4 N 6 9 3 5 - - 1.2
07/02:20am 7.5 5.4 6.6 94 0.4 N 7 9 4 5 - - 1.0
07/02:10am 7.6 5.1 6.6 93 0.5 N 9 13 5 7 - - 0.4
07/02:00am 7.6 5.5 6.5 93 0.5 N 7 9 4 5 - - 0.2
07/01:50am 7.7 5.6 6.5 92 0.6 N 7 9 4 5 - - 0.2
07/01:40am 7.8 5.6 6.4 91 0.7 N 7 9 4 5 - - 0.0
07/01:30am 8.0 5.4 6.2 88 0.9 N 9 15 5 8 - - 0.0
07/01:20am 8.2 6.0 6.2 87 1.0 N 7 9 4 5 - - 0.0
07/01:10am 8.4 6.2 6.1 85 1.1 N 7 9 4 5 - - 0.0
07/01:00am 8.8 6.4 5.3 79 1.6 NW 7 9 4 5 - - 0.0
07/12:50am 8.9 6.7 5.2 77 1.7 N 6 13 3 7 - - 0.0
07/12:40am 8.9 6.5 5.1 77 1.8 N 7 9 4 5 - - 0.0
07/12:30am 8.8 6.6 5.2 78 1.7 NNW 6 9 3 5 - - 0.0
07/12:20am 8.6 6.1 4.9 77 1.7 N 7 9 4 5 - - 0.0
07/12:10am 8.5 6.7 5.3 80 1.5 NNE 4 6 2 3 - - 0.0
07/12:00am 8.4 6.6 5.2 80 1.5 N 4 6 2 3 - - 0.0
 
Date/Time
EST
Temp
°C
App
Temp
°C
Dew
Point
°C
Rel
Hum
%
Delta-T
°C
Wind Press
QNH
hPa
Press
MSL
hPa
Rain since
9am
mm
Dir  Spd
km/h
Gust
km/h
Spd
kts
Gust
kts
06/11:50pm 8.4 6.6 5.6 82 1.3 N 4 6 2 3 - - 0.0
06/11:40pm 8.4 6.6 5.3 81 1.4 N 4 6 2 3 - - 0.0
06/11:30pm 8.4 6.6 5.4 81 1.4 N 4 4 2 2 - - 0.0
06/11:20pm 8.4 6.6 5.4 81 1.4 N 4 4 2 2 - - 0.0
06/11:10pm 8.5 6.7 5.5 81 1.4 N 4 6 2 3 - - 0.0
06/11:00pm 8.5 6.7 5.3 80 1.5 NNW 4 4 2 2 - - 0.0
06/10:50pm 8.5 7.1 5.4 81 1.5 N 2 4 1 2 - - 0.0
06/10:40pm 8.5 7.0 5.1 79 1.6 N 2 4 1 2 - - 0.0
06/10:30pm 8.5 7.0 5.1 79 1.6 N 2 4 1 2 - - 0.0
06/10:20pm 8.4 7.0 5.5 82 1.4 NNW 2 2 1 1 - - 0.0
06/10:10pm 8.5 7.2 5.8 83 1.3 NNW 2 4 1 2 - - 0.0
06/10:00pm 8.6 6.8 5.6 81 1.4 N 4 4 2 2 - - 0.0
06/09:50pm 8.5 6.9 4.4 75 1.9 NW 2 4 1 2 - - 0.0
06/09:40pm 8.5 6.9 4.7 77 1.8 NW 2 4 1 2 - - 0.0
06/09:30pm 8.4 6.6 5.6 82 1.3 NW 4 4 2 2 - - 0.0
06/09:20pm 8.4 6.7 5.7 83 1.3 NNW 4 6 2 3 - - 0.0
06/09:10pm 8.4 6.3 5.6 82 1.3 NNW 6 6 3 3 - - 0.0
06/09:00pm 8.3 6.6 5.8 84 1.2 N 4 6 2 3 - - 0.0
06/08:50pm 8.3 6.5 5.5 82 1.3 N 4 6 2 3 - - 0.0
06/08:40pm 8.3 6.6 5.7 84 1.2 NNW 4 4 2 2 - - 0.0
06/08:30pm 8.4 7.1 5.8 84 1.2 NNW 2 4 1 2 - - 0.0
06/08:20pm 8.5 7.2 6.2 85 1.1 NNE 2 4 1 2 - - 0.0
06/08:10pm 8.7 7.1 6.5 86 1.1 N 4 4 2 2 - - 0.0
06/08:00pm 8.7 7.1 6.5 86 1.1 W 4 6 2 3 - - 0.0
06/07:50pm 8.9 6.8 6.7 86 1.1 SW 7 9 4 5 - - 0.0
06/07:40pm 8.9 6.0 6.6 85 1.1 SW 11 17 6 9 - - 0.0
06/07:30pm 9.0 5.7 6.6 85 1.2 WSW 13 15 7 8 - - 0.0
06/07:20pm 9.1 6.3 6.8 85 1.1 SW 11 13 6 7 - - 0.0
06/07:10pm 9.2 6.0 6.7 84 1.2 WSW 13 13 7 7 - - 0.0
06/07:00pm 9.3 6.4 6.6 83 1.3 WSW 11 13 6 7 - - 0.0
06/06:50pm 9.4 6.5 6.7 83 1.3 WSW 11 13 6 7 - - 0.0
06/06:40pm 9.5 7.0 6.7 83 1.4 WSW 9 13 5 7 - - 0.0
06/06:30pm 9.7 7.7 7.0 83 1.3 WSW 7 11 4 6 - - 0.0

Other formats

Comma delimited format used in spreadsheet applications
http://www.bom.gov.au/fwo/IDN60801/IDN60801.99598.axf

JavaScript Object Notation format (JSON) in row-major order
http://www.bom.gov.au/fwo/IDN60801/IDN60801.99598.json

Data quality

Most of these data are generated automatically and are frequently updated. Quality checks on data are not normally performed. It is possible for incorrect values to appear. Refer to information at About Latest Weather Observations and please check the disclaimer before using these data.